Time;durP1;ratioP1;P1;durP2;ratioP2;P2;SDS_P1;SDS_P2;PMS_P1;PMS_P2;Temp;Humidity;BMP_temperature;BMP_pressure;BME280_temperature;BME280_humidity;BME280_pressure;Samples;Min_cycle;Max_cycle;Signal;HPM_P1;HPM_P2
2023/12/09 00:01:10;;;;;;;51.35;25.50;;;3.50;99.90;;;;;;4725572;30;20057;-51
2023/12/09 00:03:37;;;;;;;48.13;24.60;;;3.50;99.90;;;;;;4731695;30;20053;-48
2023/12/09 00:06:04;;;;;;;47.72;23.85;;;3.50;99.90;;;;;;4730288;30;20518;-55
2023/12/09 00:08:32;;;;;;;54.38;25.83;;;3.50;99.90;;;;;;4734188;30;20056;-54
2023/12/09 00:10:59;;;;;;;47.45;24.75;;;3.50;99.90;;;;;;4724568;30;20052;-49
2023/12/09 00:13:26;;;;;;;47.13;24.02;;;3.50;99.90;;;;;;4727380;30;20498;-54
2023/12/09 00:15:53;;;;;;;47.13;24.38;;;3.50;99.90;;;;;;4713441;30;20057;-52
2023/12/09 00:18:20;;;;;;;47.00;24.77;;;3.50;99.90;;;;;;4710509;30;20566;-56
2023/12/09 00:20:47;;;;;;;54.83;27.23;;;3.50;99.90;;;;;;4711397;30;20420;-54
2023/12/09 00:23:15;;;;;;;53.47;26.45;;;3.60;99.90;;;;;;4711760;30;20697;-50
2023/12/09 00:25:42;;;;;;;55.47;27.23;;;3.60;99.90;;;;;;4725790;30;20070;-48
2023/12/09 00:28:10;;;;;;;59.72;28.77;;;3.60;99.90;;;;;;4731043;30;20145;-50
2023/12/09 00:30:37;;;;;;;54.28;26.05;;;3.60;99.90;;;;;;4725777;30;20529;-51
2023/12/09 00:33:04;;;;;;;53.45;26.33;;;3.60;99.90;;;;;;4722685;30;20498;-55
2023/12/09 00:35:31;;;;;;;55.28;25.42;;;3.60;99.90;;;;;;4712817;30;20513;-50
2023/12/09 00:37:58;;;;;;;53.28;25.27;;;3.50;99.90;;;;;;4713281;30;20075;-49
2023/12/09 00:40:26;;;;;;;49.65;24.75;;;3.50;99.90;;;;;;4729314;30;20201;-54
2023/12/09 00:42:53;;;;;;;47.35;24.40;;;3.50;99.90;;;;;;4728305;30;20053;-49
2023/12/09 00:45:20;;;;;;;46.83;22.33;;;3.50;99.90;;;;;;4735975;30;20049;-51
2023/12/09 00:47:47;;;;;;;50.67;24.48;;;3.50;99.90;;;;;;4740853;30;20063;-52
2023/12/09 00:50:14;;;;;;;50.67;23.27;;;3.50;99.90;;;;;;4735065;30;20169;-55
2023/12/09 00:52:41;;;;;;;45.28;23.48;;;3.60;99.90;;;;;;4728570;30;20057;-51
2023/12/09 00:55:09;;;;;;;49.97;25.45;;;3.50;99.90;;;;;;4712678;30;20080;-52
2023/12/09 00:57:36;;;;;;;45.05;22.27;;;3.50;99.90;;;;;;4732108;30;20144;-52
2023/12/09 01:00:04;;;;;;;46.10;23.88;;;3.40;99.90;;;;;;4726428;30;20049;-51
2023/12/09 01:02:31;;;;;;;44.88;22.50;;;3.40;99.90;;;;;;4729288;30;20133;-50
2023/12/09 01:04:59;;;;;;;45.38;22.80;;;3.50;99.90;;;;;;4730872;30;20056;-50
2023/12/09 01:07:26;;;;;;;51.05;24.20;;;3.50;99.90;;;;;;4730365;30;20053;-54
2023/12/09 01:09:53;;;;;;;45.03;23.00;;;3.50;99.90;;;;;;4727999;30;20226;-51
2023/12/09 01:12:21;;;;;;;47.92;24.50;;;3.50;99.90;;;;;;4699776;30;20045;-55
2023/12/09 01:14:48;;;;;;;51.03;23.27;;;3.50;99.90;;;;;;4730441;30;20535;-51
2023/12/09 01:17:15;;;;;;;49.53;23.15;;;3.50;99.90;;;;;;4730349;30;20515;-56
2023/12/09 01:19:42;;;;;;;46.53;24.17;;;3.50;99.90;;;;;;4730173;30;20061;-52
2023/12/09 01:22:10;;;;;;;49.72;24.58;;;3.50;99.90;;;;;;4712290;30;20454;-53
2023/12/09 01:24:37;;;;;;;52.00;23.98;;;3.50;99.90;;;;;;4727327;30;20056;-56
2023/12/09 01:27:04;;;;;;;47.25;22.65;;;3.50;99.90;;;;;;4713972;30;20464;-51
2023/12/09 01:29:31;;;;;;;50.65;23.17;;;3.50;99.90;;;;;;4714548;30;20056;-50
2023/12/09 01:31:59;;;;;;;48.97;22.67;;;3.50;99.90;;;;;;4728775;30;20049;-51
2023/12/09 01:34:26;;;;;;;43.72;22.48;;;3.50;99.90;;;;;;4714764;30;20076;-52
2023/12/09 01:36:54;;;;;;;45.45;22.52;;;3.50;99.90;;;;;;4723964;30;20362;-54
2023/12/09 01:39:21;;;;;;;47.08;22.33;;;3.60;99.90;;;;;;4730088;30;20052;-54
2023/12/09 01:41:48;;;;;;;49.50;23.75;;;3.60;99.90;;;;;;4728097;30;20053;-55
2023/12/09 01:44:15;;;;;;;41.88;21.63;;;3.50;99.90;;;;;;4712153;30;20068;-54
2023/12/09 01:46:43;;;;;;;42.00;20.77;;;3.60;99.90;;;;;;4728506;30;20142;-50
2023/12/09 01:49:10;;;;;;;45.17;22.00;;;3.50;99.90;;;;;;4730625;30;20052;-51
2023/12/09 01:51:38;;;;;;;48.30;22.50;;;3.50;99.90;;;;;;4727447;30;20059;-51
2023/12/09 01:54:06;;;;;;;46.67;21.88;;;3.50;99.90;;;;;;4729720;30;20254;-49
2023/12/09 01:56:33;;;;;;;46.75;22.15;;;3.50;99.90;;;;;;4715542;30;20047;-51
2023/12/09 01:59:00;;;;;;;44.60;21.75;;;3.60;99.90;;;;;;4712289;30;20060;-55
2023/12/09 02:01:27;;;;;;;46.05;21.83;;;3.60;99.90;;;;;;4728540;30;20052;-50
2023/12/09 02:03:54;;;;;;;44.10;22.50;;;3.60;99.90;;;;;;4728320;30;20080;-54
2023/12/09 02:06:22;;;;;;;45.95;23.00;;;3.60;99.90;;;;;;4714411;30;20215;-54
2023/12/09 02:08:49;;;;;;;51.45;23.63;;;3.60;99.90;;;;;;4698092;30;20076;-53
2023/12/09 02:11:33;;;;;;;46.65;23.10;;;3.60;99.90;;;;;;4728811;30;20607;-56
2023/12/09 02:14:07;;;;;;;49.45;21.52;;;3.60;99.90;;;;;;4728045;30;20139;-55
2023/12/09 02:16:43;;;;;;;49.88;23.17;;;3.60;99.90;;;;;;4728315;30;20056;-52
2023/12/09 02:19:13;;;;;;;48.13;22.80;;;3.60;99.90;;;;;;4733539;30;20702;-52
2023/12/09 02:22:03;;;;;;;47.00;23.23;;;3.60;99.90;;;;;;4728734;30;20068;-51
2023/12/09 02:24:31;;;;;;;45.50;20.92;;;3.60;99.90;;;;;;4724588;30;20049;-53
2023/12/09 02:27:11;;;;;;;46.97;22.52;;;3.70;99.90;;;;;;4712799;30;20047;-49
2023/12/09 02:29:49;;;;;;;43.22;21.48;;;3.70;99.90;;;;;;4728385;30;20419;-55
2023/12/09 02:32:20;;;;;;;46.08;21.98;;;3.70;99.90;;;;;;4713062;30;20060;-53
2023/12/09 02:34:48;;;;;;;46.27;21.57;;;3.70;99.90;;;;;;4728706;30;20072;-50
2023/12/09 02:37:18;;;;;;;48.08;21.52;;;3.70;99.90;;;;;;4729457;30;20056;-51
2023/12/09 02:39:46;;;;;;;48.50;21.05;;;3.70;99.90;;;;;;4728742;30;20068;-50
2023/12/09 02:42:14;;;;;;;48.75;21.17;;;3.70;99.90;;;;;;4707259;30;20132;-48
2023/12/09 02:44:42;;;;;;;49.25;23.30;;;3.70;99.90;;;;;;4727375;30;20057;-55
2023/12/09 02:47:13;;;;;;;49.92;21.23;;;3.70;99.90;;;;;;4729170;30;20075;-54
2023/12/09 02:49:42;;;;;;;44.92;21.77;;;3.70;99.90;;;;;;4729022;30;20467;-53
2023/12/09 02:52:10;;;;;;;47.05;21.90;;;3.70;99.90;;;;;;4727468;30;20495;-52
2023/12/09 02:54:38;;;;;;;53.45;23.08;;;3.70;99.90;;;;;;4712362;30;20044;-52
2023/12/09 02:57:05;;;;;;;45.30;21.30;;;3.70;99.90;;;;;;4732442;30;20072;-51
2023/12/09 02:59:32;;;;;;;44.90;21.52;;;3.70;99.90;;;;;;4728200;30;20053;-54
2023/12/09 03:01:59;;;;;;;48.38;22.40;;;3.70;99.90;;;;;;4728565;30;20060;-51
2023/12/09 03:04:27;;;;;;;45.28;20.48;;;3.70;99.90;;;;;;4713218;30;20041;-52
2023/12/09 03:06:54;;;;;;;43.90;21.38;;;3.70;99.90;;;;;;4729285;30;20048;-53
2023/12/09 03:09:22;;;;;;;40.55;20.20;;;3.70;99.90;;;;;;4728664;30;20057;-52
2023/12/09 03:11:49;;;;;;;46.90;22.02;;;3.70;99.90;;;;;;4727944;30;20049;-52
2023/12/09 03:14:16;;;;;;;43.40;20.90;;;3.70;99.90;;;;;;4729182;30;20060;-52
2023/12/09 03:16:43;;;;;;;50.80;23.10;;;3.80;99.90;;;;;;4712582;30;20126;-51
2023/12/09 03:19:10;;;;;;;41.90;20.38;;;3.70;99.90;;;;;;4728025;30;20068;-54
2023/12/09 03:21:37;;;;;;;42.17;20.88;;;3.70;99.90;;;;;;4728912;30;20056;-51
2023/12/09 03:24:04;;;;;;;41.78;20.08;;;3.70;99.90;;;;;;4727678;30;20060;-54
2023/12/09 03:26:32;;;;;;;39.17;20.02;;;3.70;99.90;;;;;;4729284;30;20053;-50
2023/12/09 03:28:59;;;;;;;39.08;19.05;;;3.70;99.90;;;;;;4725840;30;20078;-55
2023/12/09 03:31:26;;;;;;;39.53;19.02;;;3.80;99.90;;;;;;4721912;30;20078;-53
2023/12/09 03:33:53;;;;;;;43.42;21.17;;;3.70;99.90;;;;;;4724182;30;20152;-52
2023/12/09 03:36:20;;;;;;;38.17;19.33;;;3.70;99.90;;;;;;4728854;30;20112;-53
2023/12/09 03:38:47;;;;;;;37.50;19.63;;;3.80;99.90;;;;;;4727859;30;20053;-56
2023/12/09 03:41:15;;;;;;;42.00;20.25;;;3.80;99.90;;;;;;4703761;30;20056;-51
2023/12/09 03:43:42;;;;;;;41.10;19.98;;;3.80;99.90;;;;;;4724560;30;20064;-53
2023/12/09 03:46:12;;;;;;;38.42;20.50;;;3.80;99.90;;;;;;4733639;30;20064;-54
2023/12/09 03:48:39;;;;;;;40.00;19.52;;;3.80;99.90;;;;;;4724404;30;20053;-55
2023/12/09 03:51:06;;;;;;;42.13;20.30;;;3.90;99.90;;;;;;4728240;30;20066;-52
2023/12/09 03:53:33;;;;;;;43.20;20.20;;;3.90;99.90;;;;;;4728610;30;20114;-53
2023/12/09 03:56:00;;;;;;;41.17;20.73;;;3.90;99.90;;;;;;4729006;30;20512;-53
2023/12/09 03:58:27;;;;;;;42.35;20.75;;;3.90;99.90;;;;;;4735895;30;20049;-49
2023/12/09 04:00:54;;;;;;;40.85;19.70;;;3.90;99.90;;;;;;4725034;30;20421;-55
2023/12/09 04:03:22;;;;;;;40.13;20.27;;;3.90;99.90;;;;;;4733210;30;20101;-53
2023/12/09 04:05:50;;;;;;;42.60;20.08;;;3.90;99.90;;;;;;4736028;30;20056;-50
2023/12/09 04:08:17;;;;;;;43.17;20.73;;;3.90;99.90;;;;;;4731900;30;20056;-48
2023/12/09 04:10:44;;;;;;;38.60;19.85;;;3.90;99.90;;;;;;4725458;30;20482;-52
2023/12/09 04:13:11;;;;;;;36.65;19.58;;;3.80;99.90;;;;;;4721381;30;20057;-51
2023/12/09 04:15:38;;;;;;;36.72;18.92;;;3.80;99.90;;;;;;4732872;30;20044;-52
2023/12/09 04:18:06;;;;;;;37.53;19.45;;;3.80;99.90;;;;;;4729879;30;20040;-49
2023/12/09 04:20:33;;;;;;;38.40;19.40;;;3.80;99.90;;;;;;4714130;30;20045;-52
2023/12/09 04:23:00;;;;;;;36.85;18.33;;;3.80;99.90;;;;;;4727879;30;20044;-53
2023/12/09 04:25:28;;;;;;;35.65;17.75;;;3.80;99.90;;;;;;4729221;30;20052;-51
2023/12/09 04:27:55;;;;;;;34.63;18.13;;;3.80;99.90;;;;;;4732519;30;20502;-54
2023/12/09 04:30:22;;;;;;;32.75;17.42;;;3.80;99.90;;;;;;4733264;30;20051;-49
2023/12/09 04:32:49;;;;;;;36.33;18.48;;;3.80;99.90;;;;;;4734610;30;20041;-50
2023/12/09 04:35:16;;;;;;;35.53;17.45;;;3.80;99.90;;;;;;4726042;30;20523;-54
2023/12/09 04:37:44;;;;;;;41.28;20.20;;;3.80;99.90;;;;;;4731515;30;20052;-53
2023/12/09 04:40:11;;;;;;;38.92;18.13;;;3.90;99.90;;;;;;4724229;30;20061;-54
2023/12/09 04:42:41;;;;;;;38.50;17.38;;;3.90;99.90;;;;;;4728263;30;20139;-54
2023/12/09 04:45:08;;;;;;;36.22;17.50;;;3.90;99.90;;;;;;4733338;30;20132;-51
2023/12/09 04:47:36;;;;;;;36.50;18.63;;;3.80;99.90;;;;;;4730338;30;20061;-52
2023/12/09 04:50:07;;;;;;;34.97;18.98;;;3.80;99.90;;;;;;4700894;30;20175;-54
2023/12/09 04:52:38;;;;;;;35.47;18.52;;;3.80;99.90;;;;;;4723044;30;20408;-55
2023/12/09 04:55:05;;;;;;;38.00;19.33;;;3.90;99.90;;;;;;4727459;30;20056;-52
2023/12/09 04:57:32;;;;;;;36.17;17.30;;;3.90;99.90;;;;;;4717182;30;20058;-55
2023/12/09 05:00:03;;;;;;;37.60;17.85;;;3.90;99.90;;;;;;4728553;30;20474;-50
2023/12/09 05:02:31;;;;;;;38.80;18.88;;;3.90;99.90;;;;;;4727184;30;20080;-55
2023/12/09 05:04:58;;;;;;;39.10;19.30;;;3.80;99.90;;;;;;4712503;30;20045;-52
2023/12/09 05:07:28;;;;;;;36.08;17.65;;;3.80;99.90;;;;;;4726578;30;20158;-51
2023/12/09 05:09:55;;;;;;;36.55;17.23;;;3.80;99.90;;;;;;4727708;30;20061;-48
2023/12/09 05:12:22;;;;;;;38.55;18.48;;;3.80;99.90;;;;;;4728211;30;20511;-50
2023/12/09 05:14:49;;;;;;;39.38;19.85;;;3.80;99.90;;;;;;4729212;30;20206;-50
2023/12/09 05:17:16;;;;;;;40.13;19.73;;;3.80;99.90;;;;;;4724374;30;20064;-50
2023/12/09 05:19:43;;;;;;;33.53;17.25;;;3.80;99.90;;;;;;4732929;30;20084;-49
2023/12/09 05:22:11;;;;;;;37.65;18.35;;;3.80;99.90;;;;;;4713113;30;20524;-50
2023/12/09 05:24:38;;;;;;;36.33;19.05;;;3.90;99.90;;;;;;4730116;30;20052;-54
2023/12/09 05:27:06;;;;;;;36.40;19.02;;;3.90;99.90;;;;;;4702234;30;20449;-50
2023/12/09 05:29:33;;;;;;;35.38;18.58;;;3.90;99.90;;;;;;4715474;30;20057;-54
2023/12/09 05:32:00;;;;;;;39.97;19.52;;;3.90;99.90;;;;;;4728290;30;20060;-54
2023/12/09 05:34:27;;;;;;;41.45;19.30;;;3.90;99.90;;;;;;4703279;30;20082;-54
2023/12/09 05:36:54;;;;;;;39.42;21.33;;;3.90;99.90;;;;;;4729006;30;20053;-53
2023/12/09 05:39:21;;;;;;;44.22;20.27;;;3.90;99.90;;;;;;4724159;30;20052;-54
2023/12/09 05:41:48;;;;;;;40.15;20.38;;;3.90;99.90;;;;;;4726220;30;20538;-51
2023/12/09 05:44:15;;;;;;;36.20;16.65;;;3.90;99.90;;;;;;4728569;30;20059;-56
2023/12/09 05:46:43;;;;;;;35.33;18.60;;;4.00;99.90;;;;;;4724352;30;20139;-52
2023/12/09 05:49:10;;;;;;;32.90;17.00;;;4.00;99.90;;;;;;4732601;30;20381;-57
2023/12/09 05:51:37;;;;;;;40.03;19.02;;;4.00;99.90;;;;;;4725205;30;20114;-53
2023/12/09 05:54:04;;;;;;;36.13;19.00;;;4.10;99.90;;;;;;4713512;30;20085;-55
2023/12/09 05:56:31;;;;;;;35.53;16.95;;;4.10;99.90;;;;;;4729604;30;20134;-56
2023/12/09 05:58:58;;;;;;;33.35;16.85;;;4.10;99.90;;;;;;4728969;30;20076;-50
2023/12/09 06:01:26;;;;;;;34.03;17.95;;;4.10;99.90;;;;;;4728181;30;20056;-51
2023/12/09 06:03:53;;;;;;;32.47;16.23;;;4.10;99.90;;;;;;4729177;30;20153;-50
2023/12/09 06:06:20;;;;;;;32.08;16.45;;;4.10;99.90;;;;;;4716024;30;20335;-48
2023/12/09 06:08:47;;;;;;;34.08;16.73;;;4.10;99.90;;;;;;4725503;30;20045;-54
2023/12/09 06:11:15;;;;;;;32.58;17.10;;;4.10;99.90;;;;;;4727977;30;20789;-51
2023/12/09 06:13:42;;;;;;;35.85;16.33;;;4.10;99.90;;;;;;4725527;30;20055;-55
2023/12/09 06:16:09;;;;;;;33.30;16.77;;;4.10;99.90;;;;;;4725513;30;20107;-55
2023/12/09 06:18:36;;;;;;;35.85;15.82;;;4.10;99.90;;;;;;4725192;30;20148;-52
2023/12/09 06:21:04;;;;;;;32.25;16.08;;;4.10;99.90;;;;;;4722688;30;20537;-54
2023/12/09 06:23:31;;;;;;;28.98;15.15;;;4.10;99.90;;;;;;4727492;30;20044;-52
2023/12/09 06:25:58;;;;;;;31.33;15.65;;;4.10;99.90;;;;;;4728901;30;20136;-50
2023/12/09 06:28:25;;;;;;;33.67;16.05;;;4.10;99.90;;;;;;4728563;30;20403;-52
2023/12/09 06:30:52;;;;;;;37.20;17.08;;;4.10;99.90;;;;;;4721647;30;20111;-52
2023/12/09 06:33:22;;;;;;;38.92;16.90;;;4.10;99.90;;;;;;4725974;30;20451;-50
2023/12/09 06:35:49;;;;;;;34.40;17.90;;;4.10;99.90;;;;;;4711265;30;20584;-48
2023/12/09 06:38:17;;;;;;;35.47;17.90;;;4.00;99.90;;;;;;4698306;30;20056;-52
2023/12/09 06:40:44;;;;;;;38.90;17.40;;;4.00;99.90;;;;;;4725684;30;20048;-54
2023/12/09 06:43:11;;;;;;;36.15;17.40;;;4.00;99.90;;;;;;4706029;30;20049;-53
2023/12/09 06:45:38;;;;;;;34.33;16.85;;;4.00;99.90;;;;;;4732387;30;20071;-49
2023/12/09 06:48:05;;;;;;;36.13;17.60;;;4.00;99.90;;;;;;4725266;30;20048;-55
2023/12/09 06:50:33;;;;;;;35.88;16.90;;;4.00;99.90;;;;;;4711886;30;20093;-47
2023/12/09 06:53:00;;;;;;;35.95;19.05;;;4.00;99.90;;;;;;4721293;30;20095;-56
2023/12/09 06:55:27;;;;;;;43.72;19.25;;;4.00;99.90;;;;;;4722780;30;20056;-47
2023/12/09 06:57:54;;;;;;;43.05;18.65;;;4.00;99.90;;;;;;4728075;30;20527;-53
2023/12/09 07:00:22;;;;;;;34.28;17.83;;;4.10;99.90;;;;;;4727556;30;20408;-49
2023/12/09 07:02:49;;;;;;;43.53;20.13;;;4.10;99.90;;;;;;4725471;30;20053;-51
2023/12/09 07:05:26;;;;;;;43.53;18.90;;;4.10;99.90;;;;;;4727631;30;20076;-53
2023/12/09 07:07:53;;;;;;;40.90;18.48;;;4.10;99.90;;;;;;4725916;30;20131;-47
2023/12/09 07:10:21;;;;;;;45.10;19.90;;;4.20;99.90;;;;;;4721641;30;20511;-52
2023/12/09 07:12:48;;;;;;;38.22;17.92;;;4.20;99.90;;;;;;4724731;30;20071;-48
2023/12/09 07:15:15;;;;;;;37.85;17.92;;;4.20;99.90;;;;;;4728690;30;20472;-52
2023/12/09 07:17:43;;;;;;;37.30;17.30;;;4.30;99.90;;;;;;4721078;30;20132;-53
2023/12/09 07:20:10;;;;;;;38.83;19.05;;;4.30;99.90;;;;;;4728273;30;20147;-56
2023/12/09 07:22:37;;;;;;;44.95;19.20;;;4.30;99.90;;;;;;4702555;30;20100;-51
2023/12/09 07:25:05;;;;;;;35.67;17.33;;;4.30;99.90;;;;;;4726637;30;20231;-50
2023/12/09 07:27:32;;;;;;;46.08;17.75;;;4.30;99.90;;;;;;4703201;30;20059;-53
2023/12/09 07:30:00;;;;;;;35.85;17.48;;;4.40;99.90;;;;;;4724546;30;20048;-55
2023/12/09 07:32:27;;;;;;;38.60;17.48;;;4.40;99.90;;;;;;4728074;30;20040;-52
2023/12/09 07:34:55;;;;;;;42.90;19.15;;;4.40;99.90;;;;;;4725012;30;20516;-55
2023/12/09 07:37:23;;;;;;;37.80;16.75;;;4.40;99.90;;;;;;4728705;30;20087;-56
2023/12/09 07:39:51;;;;;;;43.20;18.27;;;4.40;99.90;;;;;;4712005;30;20067;-56
2023/12/09 07:42:18;;;;;;;44.10;20.00;;;4.40;99.90;;;;;;4727956;30;20538;-52
2023/12/09 07:44:46;;;;;;;42.25;20.17;;;4.40;99.90;;;;;;4727339;30;20072;-54
2023/12/09 07:47:13;;;;;;;43.63;21.17;;;4.40;99.90;;;;;;4725926;30;20504;-55
2023/12/09 07:49:42;;;;;;;41.53;21.05;;;4.30;99.90;;;;;;4707320;30;20493;-53
2023/12/09 07:52:09;;;;;;;44.47;20.70;;;4.40;99.90;;;;;;4723446;30;20059;-49
2023/12/09 07:54:36;;;;;;;45.90;22.80;;;4.40;99.90;;;;;;4724883;30;20136;-53
2023/12/09 07:57:04;;;;;;;42.05;20.67;;;4.30;99.90;;;;;;4725136;30;20059;-53
2023/12/09 07:59:31;;;;;;;48.15;21.75;;;4.40;99.90;;;;;;4712847;30;20053;-50
2023/12/09 08:01:58;;;;;;;43.55;19.63;;;4.40;99.90;;;;;;4701868;30;20495;-57
2023/12/09 08:04:25;;;;;;;46.13;20.67;;;4.40;99.90;;;;;;4721763;30;20155;-50
2023/12/09 08:06:53;;;;;;;46.88;20.17;;;4.40;99.90;;;;;;4728773;30;20049;-57
2023/12/09 08:09:21;;;;;;;50.75;19.60;;;4.40;99.90;;;;;;4722349;30;20409;-53
2023/12/09 08:11:48;;;;;;;42.53;19.63;;;4.50;99.90;;;;;;4724407;30;20049;-52
2023/12/09 08:14:19;;;;;;;41.17;19.15;;;4.60;99.90;;;;;;4710987;30;20065;-54
2023/12/09 08:16:46;;;;;;;40.28;18.00;;;4.60;99.90;;;;;;4722838;30;20059;-53
2023/12/09 08:19:13;;;;;;;40.10;18.83;;;4.70;99.90;;;;;;4726207;30;20127;-54
2023/12/09 08:21:40;;;;;;;44.15;18.65;;;4.80;99.90;;;;;;4725129;30;20072;-48
2023/12/09 08:24:08;;;;;;;38.10;18.85;;;4.80;99.90;;;;;;4731128;30;20430;-51
2023/12/09 08:26:36;;;;;;;40.67;17.05;;;4.90;99.90;;;;;;4717028;30;20049;-55
2023/12/09 08:29:04;;;;;;;42.22;17.67;;;5.00;99.90;;;;;;4729925;30;20056;-51
2023/12/09 08:31:32;;;;;;;40.88;18.42;;;5.00;99.90;;;;;;4725908;30;20094;-53
2023/12/09 08:33:59;;;;;;;36.17;16.83;;;5.00;99.90;;;;;;4731520;30;20580;-49
2023/12/09 08:36:26;;;;;;;39.92;17.67;;;5.00;99.90;;;;;;4732249;30;20438;-48
2023/12/09 08:38:54;;;;;;;40.08;18.58;;;5.10;99.90;;;;;;4731365;30;20044;-56
2023/12/09 08:41:22;;;;;;;34.60;17.17;;;5.10;99.90;;;;;;4729927;30;20057;-55
2023/12/09 08:43:51;;;;;;;38.92;17.92;;;5.10;99.90;;;;;;4727262;30;20127;-48
2023/12/09 08:46:18;;;;;;;38.55;16.92;;;5.20;99.90;;;;;;4715525;30;20052;-54
2023/12/09 08:48:45;;;;;;;40.92;17.60;;;5.20;99.90;;;;;;4723666;30;20161;-52
2023/12/09 08:51:13;;;;;;;35.28;16.55;;;5.30;99.90;;;;;;4709800;30;20476;-48
2023/12/09 08:53:40;;;;;;;37.33;16.45;;;5.40;99.90;;;;;;4727329;30;20402;-53
2023/12/09 08:56:07;;;;;;;34.55;17.20;;;5.50;99.90;;;;;;4725523;30;20205;-53
2023/12/09 08:58:34;;;;;;;34.33;17.80;;;5.50;99.90;;;;;;4730719;30;20095;-55
2023/12/09 09:01:02;;;;;;;37.75;18.77;;;5.60;99.90;;;;;;4724173;30;20057;-49
2023/12/09 09:03:30;;;;;;;37.22;19.23;;;5.70;99.90;;;;;;4729149;30;20495;-51
2023/12/09 09:05:58;;;;;;;28.95;14.93;;;5.90;99.90;;;;;;4725879;30;20079;-49
2023/12/09 09:08:25;;;;;;;29.05;16.00;;;6.00;99.90;;;;;;4711733;30;20526;-48
2023/12/09 09:10:52;;;;;;;33.47;15.82;;;6.00;99.90;;;;;;4722456;30;20356;-49
2023/12/09 09:13:20;;;;;;;30.35;14.45;;;6.10;99.90;;;;;;4725912;30;20503;-50
2023/12/09 09:15:47;;;;;;;28.30;14.85;;;6.10;99.90;;;;;;4713416;30;20080;-49
2023/12/09 09:18:14;;;;;;;28.65;15.25;;;6.10;99.90;;;;;;4727182;30;20071;-48
2023/12/09 09:20:44;;;;;;;28.02;15.13;;;6.00;99.90;;;;;;4712492;30;20487;-50
2023/12/09 09:23:12;;;;;;;27.33;14.52;;;6.00;99.90;;;;;;4726654;30;20053;-53
2023/12/09 09:25:40;;;;;;;28.50;13.90;;;5.90;99.90;;;;;;4725472;30;20144;-51
2023/12/09 09:28:07;;;;;;;26.52;14.60;;;5.90;99.90;;;;;;4728604;30;20076;-51
2023/12/09 09:30:34;;;;;;;27.38;14.68;;;5.90;99.90;;;;;;4724268;30;20420;-52
2023/12/09 09:33:02;;;;;;;31.10;15.45;;;6.00;99.90;;;;;;4730513;30;20055;-50
2023/12/09 09:35:29;;;;;;;29.17;15.50;;;6.10;99.90;;;;;;4730494;30;20060;-51
2023/12/09 09:37:56;;;;;;;26.67;14.52;;;6.30;99.90;;;;;;4730685;30;20128;-51
2023/12/09 09:40:23;;;;;;;26.00;14.02;;;6.40;99.90;;;;;;4730132;30;20067;-54
2023/12/09 09:42:58;;;;;;;28.80;15.57;;;6.50;99.90;;;;;;4727656;30;20067;-51
2023/12/09 09:45:27;;;;;;;25.25;14.38;;;6.60;99.90;;;;;;4710865;30;20146;-48
2023/12/09 09:48:03;;;;;;;24.55;13.45;;;6.60;99.90;;;;;;4715233;30;20056;-54
2023/12/09 09:50:40;;;;;;;24.08;13.80;;;6.60;99.90;;;;;;4724039;30;20063;-50
2023/12/09 09:53:08;;;;;;;25.80;14.68;;;6.60;99.90;;;;;;4728888;30;20052;-51
2023/12/09 09:55:39;;;;;;;22.02;12.95;;;6.60;99.90;;;;;;4716651;30;20124;-55
2023/12/09 09:58:07;;;;;;;24.83;14.20;;;6.50;99.90;;;;;;4717091;30;21042;-53
2023/12/09 10:00:34;;;;;;;23.65;13.48;;;6.60;99.90;;;;;;4709705;30;20155;-52
2023/12/09 10:03:01;;;;;;;22.75;13.02;;;6.70;99.90;;;;;;4733804;30;20053;-49
2023/12/09 10:05:30;;;;;;;21.15;13.05;;;6.80;99.90;;;;;;4735301;30;20399;-53
2023/12/09 10:07:59;;;;;;;23.25;13.05;;;6.70;99.90;;;;;;4734564;30;20494;-51
2023/12/09 10:10:27;;;;;;;23.52;14.13;;;6.70;99.90;;;;;;4724399;30;20055;-53
2023/12/09 10:12:54;;;;;;;20.80;12.55;;;6.60;99.90;;;;;;4728212;30;20100;-51
2023/12/09 10:15:21;;;;;;;25.83;12.70;;;6.60;99.90;;;;;;4715307;30;20171;-50
2023/12/09 10:17:48;;;;;;;23.85;12.65;;;6.60;99.90;;;;;;4694799;30;20068;-49
2023/12/09 10:20:16;;;;;;;23.80;12.55;;;6.50;99.90;;;;;;4728014;30;20059;-50
2023/12/09 10:22:45;;;;;;;24.00;13.73;;;6.50;99.90;;;;;;4725406;30;20064;-49
2023/12/09 10:25:24;;;;;;;23.20;12.27;;;6.50;99.90;;;;;;4727913;30;20151;-53
2023/12/09 10:27:51;;;;;;;20.00;11.30;;;6.40;99.90;;;;;;4711992;30;20053;-52
2023/12/09 10:30:18;;;;;;;23.52;12.45;;;6.50;99.90;;;;;;4727755;30;20052;-50
2023/12/09 10:32:49;;;;;;;26.15;14.82;;;6.40;99.90;;;;;;4712677;30;20044;-52
2023/12/09 10:35:17;;;;;;;19.98;12.68;;;6.50;99.90;;;;;;4724728;30;20056;-55
2023/12/09 10:37:48;;;;;;;21.17;12.60;;;6.60;99.90;;;;;;4713168;30;20041;-48
2023/12/09 10:40:15;;;;;;;21.40;12.73;;;6.80;99.90;;;;;;4725617;30;20060;-54
2023/12/09 10:42:42;;;;;;;17.75;10.98;;;6.90;99.90;;;;;;4724311;30;20048;-53
2023/12/09 10:45:11;;;;;;;18.58;10.77;;;7.00;99.90;;;;;;4716792;30;20103;-53
2023/12/09 10:47:39;;;;;;;19.30;10.95;;;6.80;99.90;;;;;;4728832;30;20360;-54
2023/12/09 10:50:07;;;;;;;18.50;10.65;;;6.70;99.90;;;;;;4725932;30;20053;-50
2023/12/09 10:52:34;;;;;;;18.38;11.10;;;6.80;99.90;;;;;;4712471;30;20405;-50
2023/12/09 10:55:05;;;;;;;17.15;10.48;;;6.80;99.90;;;;;;4728168;30;20109;-50
2023/12/09 10:57:33;;;;;;;21.10;10.82;;;6.70;99.90;;;;;;4729437;30;20052;-57
2023/12/09 11:00:07;;;;;;;17.83;9.75;;;6.60;99.90;;;;;;4724707;30;20057;-52
2023/12/09 11:02:35;;;;;;;18.88;10.00;;;6.60;99.90;;;;;;4727897;30;20052;-50
2023/12/09 11:05:02;;;;;;;18.85;10.43;;;6.40;99.90;;;;;;4731377;30;20138;-53
2023/12/09 11:07:32;;;;;;;20.33;10.95;;;6.20;99.90;;;;;;4729507;30;20083;-53
2023/12/09 11:09:59;;;;;;;17.77;10.02;;;6.00;99.90;;;;;;4716252;30;20049;-55
2023/12/09 11:12:27;;;;;;;21.58;10.18;;;5.90;99.90;;;;;;4726613;30;20195;-53
2023/12/09 11:15:00;;;;;;;20.23;11.18;;;5.70;99.90;;;;;;4729593;30;20392;-51
2023/12/09 11:17:37;;;;;;;21.80;12.20;;;5.50;99.90;;;;;;4714990;30;20420;-52
2023/12/09 11:20:15;;;;;;;20.10;11.43;;;5.40;99.90;;;;;;4712366;30;20110;-53
2023/12/09 11:22:44;;;;;;;18.15;9.70;;;5.50;99.90;;;;;;4735399;30;20048;-51
2023/12/09 11:25:22;;;;;;;24.15;10.60;;;5.50;99.90;;;;;;4728463;30;20673;-50
2023/12/09 11:27:51;;;;;;;15.95;8.52;;;5.60;99.90;;;;;;4723183;30;20256;-52
2023/12/09 11:30:30;;;;;;;21.42;11.70;;;5.40;99.90;;;;;;4710168;30;20581;-51
2023/12/09 11:32:58;;;;;;;21.42;9.90;;;5.30;99.90;;;;;;4700524;30;20060;-52
2023/12/09 11:35:26;;;;;;;20.20;10.32;;;5.40;99.90;;;;;;4698727;30;20056;-50
2023/12/09 11:37:56;;;;;;;22.52;10.65;;;5.40;99.90;;;;;;4727478;30;20056;-55
2023/12/09 11:40:24;;;;;;;19.45;10.32;;;5.40;99.90;;;;;;4725209;30;20578;-49
2023/12/09 11:42:52;;;;;;;20.98;10.60;;;5.40;99.90;;;;;;4725916;30;20472;-54
2023/12/09 11:45:21;;;;;;;22.27;11.18;;;5.30;99.90;;;;;;4727692;30;20063;-54
2023/12/09 11:47:49;;;;;;;23.73;10.05;;;5.30;99.90;;;;;;4725589;30;20068;-53
2023/12/09 11:50:17;;;;;;;19.40;10.13;;;5.20;99.90;;;;;;4727525;30;20484;-48
2023/12/09 11:52:45;;;;;;;21.63;10.48;;;5.20;99.90;;;;;;4723957;30;20128;-53
2023/12/09 11:55:16;;;;;;;23.45;11.82;;;5.10;99.90;;;;;;4725103;30;20068;-49
2023/12/09 11:57:43;;;;;;;22.65;11.38;;;5.00;99.90;;;;;;4732516;30;20049;-54
2023/12/09 12:00:11;;;;;;;17.52;10.23;;;5.00;99.90;;;;;;4732731;30;20093;-52
2023/12/09 12:02:39;;;;;;;17.40;9.63;;;4.90;99.90;;;;;;4714919;30;20057;-51
2023/12/09 12:05:11;;;;;;;18.65;9.50;;;4.80;99.90;;;;;;4732677;30;20068;-50
2023/12/09 12:07:39;;;;;;;;;;;4.80;99.90;;;;;;4712487;30;20056;-52
2023/12/09 12:10:07;;;;;;;22.83;9.70;;;4.80;99.90;;;;;;4715171;30;19988;-57
2023/12/09 12:12:37;;;;;;;19.00;9.70;;;4.90;99.90;;;;;;4725783;30;20148;-54
2023/12/09 12:15:05;;;;;;;18.98;9.50;;;4.90;99.90;;;;;;4723331;30;20426;-51
2023/12/09 12:17:39;;;;;;;22.42;9.82;;;4.80;99.90;;;;;;4726366;30;20060;-48
2023/12/09 12:20:09;;;;;;;21.88;10.52;;;4.80;99.90;;;;;;4726771;30;20052;-51
2023/12/09 12:22:38;;;;;;;22.88;11.77;;;4.80;99.90;;;;;;4703200;30;20132;-50
2023/12/09 12:25:08;;;;;;;24.10;11.95;;;4.90;99.90;;;;;;4720653;30;20075;-49
2023/12/09 12:27:46;;;;;;;22.13;12.38;;;5.00;99.90;;;;;;4728431;30;20439;-54
2023/12/09 12:30:13;;;;;;;23.05;11.13;;;5.00;99.90;;;;;;4728600;30;20084;-52
2023/12/09 12:32:42;;;;;;;22.67;12.05;;;5.00;99.90;;;;;;4728641;30;20264;-48
2023/12/09 12:35:10;;;;;;;21.90;11.40;;;5.10;99.90;;;;;;4715575;30;20063;-50
2023/12/09 12:37:38;;;;;;;19.25;10.57;;;5.10;99.90;;;;;;4716332;30;20507;-48
2023/12/09 12:40:05;;;;;;;20.67;11.15;;;5.20;99.90;;;;;;4725966;30;20057;-54
2023/12/09 12:42:33;;;;;;;20.73;11.70;;;5.30;99.90;;;;;;4731790;30;20052;-54